Time;durP1;ratioP1;P1;durP2;ratioP2;P2;SDS_P1;SDS_P2;PMS_P1;PMS_P2;Temp;Humidity;BMP_temperature;BMP_pressure;BME280_temperature;BME280_humidity;BME280_pressure;Samples;Min_cycle;Max_cycle;Signal;HPM_P1;HPM_P2
2023/10/16 00:01:17;;;;;;;5.25;0.47;;;7.30;99.90;;;;;;5044667;28;20063;-79
2023/10/16 00:03:43;;;;;;;4.60;0.50;;;9.50;99.90;;;;;;5044668;28;20048;-79
2023/10/16 00:06:12;;;;;;;2.08;0.77;;;8.60;99.90;;;;;;5058381;28;20032;-79
2023/10/16 00:08:48;;;;;;;1.45;0.28;;;7.30;99.90;;;;;;5041264;28;20044;-79
2023/10/16 00:11:18;;;;;;;2.10;0.30;;;7.30;99.90;;;;;;5045735;28;20036;-80
2023/10/16 00:13:48;;;;;;;4.22;0.38;;;9.20;99.90;;;;;;5044151;28;20040;-80
2023/10/16 00:16:17;;;;;;;2.75;0.60;;;7.30;99.90;;;;;;5041324;28;20044;-80
2023/10/16 00:18:45;;;;;;;1.33;0.40;;;7.30;99.90;;;;;;5042599;28;20089;-80
2023/10/16 00:21:13;;;;;;;4.65;0.68;;;7.20;99.90;;;;;;5045457;28;20040;-80
2023/10/16 00:23:39;;;;;;;3.65;0.22;;;9.20;99.90;;;;;;5061208;28;20551;-80
2023/10/16 00:26:06;;;;;;;2.47;0.60;;;7.20;99.90;;;;;;5041930;28;20049;-80
2023/10/16 00:28:35;;;;;;;3.85;0.55;;;7.30;99.90;;;;;;5058252;28;20056;-80
2023/10/16 00:31:01;;;;;;;0.80;0.40;;;7.20;99.90;;;;;;5044123;28;20063;-80
2023/10/16 00:33:27;;;;;;;6.00;0.40;;;8.90;99.90;;;;;;5045725;28;20085;-80
2023/10/16 00:35:53;;;;;;;2.38;0.35;;;8.60;99.90;;;;;;5043230;28;20127;-79
2023/10/16 00:38:19;;;;;;;6.88;0.50;;;9.20;99.90;;;;;;5062442;28;20391;-80
2023/10/16 00:43:33;;;;;;;2.22;0.65;;;8.80;99.90;;;;;;5065145;28;20063;-80
2023/10/16 00:46:08;;;;;;;2.30;0.20;;;7.30;99.90;;;;;;5046398;28;20052;-80
2023/10/16 00:48:37;;;;;;;1.00;0.20;;;7.20;99.90;;;;;;5045721;28;20044;-80
2023/10/16 00:51:08;;;;;;;3.40;0.20;;;8.80;99.90;;;;;;5048162;28;20084;-80
2023/10/16 00:53:37;;;;;;;5.50;0.30;;;8.70;99.90;;;;;;5049298;28;20460;-80
2023/10/16 00:56:08;;;;;;;3.08;0.47;;;8.20;99.90;;;;;;5045754;28;20385;-80
2023/10/16 00:58:36;;;;;;;4.30;1.15;;;7.20;99.90;;;;;;5044613;28;20128;-80
2023/10/16 01:01:05;;;;;;;3.50;0.45;;;8.90;99.90;;;;;;5048389;28;20036;-80
2023/10/16 01:03:36;;;;;;;2.08;0.30;;;9.10;99.90;;;;;;5065488;28;20087;-79
2023/10/16 01:06:03;;;;;;;3.47;0.35;;;7.20;99.90;;;;;;5061531;28;20044;-80
2023/10/16 01:08:29;;;;;;;0.45;0.13;;;6.80;99.90;;;;;;5045119;28;20033;-80
2023/10/16 01:10:57;;;;;;;2.15;0.20;;;7.40;99.90;;;;;;5046782;28;20102;-80
2023/10/16 01:13:26;;;;;;;1.80;0.30;;;6.70;99.90;;;;;;5065989;28;20106;-80
2023/10/16 01:15:56;;;;;;;2.50;0.28;;;8.90;99.90;;;;;;5062958;28;20056;-80
2023/10/16 01:18:23;;;;;;;3.03;0.20;;;6.40;99.90;;;;;;5044550;28;20037;-80
2023/10/16 01:20:50;;;;;;;5.72;0.60;;;7.30;99.90;;;;;;5045776;28;20047;-80
2023/10/16 01:23:18;;;;;;;5.43;0.45;;;8.00;99.90;;;;;;5065278;28;20036;-81
2023/10/16 01:25:46;;;;;;;4.35;0.30;;;7.30;99.90;;;;;;5046766;28;20039;-80
2023/10/16 01:28:16;;;;;;;5.20;0.38;;;9.10;99.90;;;;;;5045132;28;20028;-81
2023/10/16 01:30:47;;;;;;;4.45;0.60;;;7.20;99.90;;;;;;5038656;28;20033;-81
2023/10/16 01:33:16;;;;;;;3.40;0.30;;;7.30;99.90;;;;;;5047828;28;20039;-80
2023/10/16 01:35:43;;;;;;;3.25;0.20;;;7.30;99.90;;;;;;5047686;28;20590;-80
2023/10/16 01:38:15;;;;;;;2.20;0.13;;;7.20;99.90;;;;;;5044215;28;20043;-80
2023/10/16 01:41:02;;;;;;;4.18;0.40;;;7.30;99.90;;;;;;5044139;28;20177;-80
2023/10/16 01:43:29;;;;;;;2.40;0.60;;;7.10;99.90;;;;;;5048251;28;20065;-80
2023/10/16 01:45:58;;;;;;;3.78;0.47;;;7.30;99.90;;;;;;5045630;28;20040;-80
2023/10/16 01:48:28;;;;;;;3.08;0.40;;;7.20;99.90;;;;;;5043737;28;20511;-80
2023/10/16 01:50:53;;;;;;;3.42;0.57;;;7.20;99.90;;;;;;5046019;28;20550;-79
2023/10/16 01:53:20;;;;;;;3.17;0.65;;;9.00;99.90;;;;;;5064624;28;20036;-80
2023/10/16 01:55:56;;;;;;;3.55;0.45;;;9.50;99.90;;;;;;5046611;28;20048;-79
2023/10/16 01:58:25;;;;;;;6.03;0.70;;;7.20;99.90;;;;;;5044171;28;20032;-80
2023/10/16 02:00:54;;;;;;;3.42;0.50;;;7.80;99.90;;;;;;5044449;28;20045;-80
2023/10/16 02:03:22;;;;;;;5.07;0.95;;;9.20;99.90;;;;;;5047743;28;20379;-80
2023/10/16 02:05:48;;;;;;;5.20;0.60;;;9.40;99.90;;;;;;5046175;28;20052;-80
2023/10/16 02:08:14;;;;;;;6.07;1.20;;;7.80;99.90;;;;;;5043384;28;20067;-80
2023/10/16 02:10:41;;;;;;;3.60;0.60;;;9.20;99.90;;;;;;5044049;28;20036;-80
2023/10/16 02:13:08;;;;;;;2.50;0.60;;;;;;;;;;5052691;28;20384;-80
2023/10/16 02:15:37;;;;;;;6.65;0.63;;;7.30;99.90;;;;;;5043245;28;20075;-80
2023/10/16 02:18:06;;;;;;;2.22;0.50;;;7.20;99.90;;;;;;5046627;28;20131;-80
2023/10/16 02:20:36;;;;;;;5.32;0.70;;;8.90;99.90;;;;;;5047158;28;20046;-80
2023/10/16 02:23:03;;;;;;;1.80;0.47;;;7.30;99.90;;;;;;5043990;28;20055;-80
2023/10/16 02:25:29;;;;;;;5.45;0.60;;;7.40;99.90;;;;;;5043877;28;20078;-80
2023/10/16 02:27:54;;;;;;;2.97;0.93;;;7.30;99.90;;;;;;5044750;28;20044;-81
2023/10/16 02:32:53;;;;;;;3.83;0.90;;;7.50;99.90;;;;;;5062265;28;20047;-81
2023/10/16 02:35:21;;;;;;;3.35;0.60;;;7.40;99.90;;;;;;5043583;28;20311;-80
2023/10/16 02:37:53;;;;;;;1.58;0.60;;;7.50;99.90;;;;;;5043685;28;20084;-80
2023/10/16 02:40:20;;;;;;;4.82;1.23;;;9.20;99.90;;;;;;5047104;28;20075;-80
2023/10/16 02:42:56;;;;;;;2.60;0.70;;;7.60;99.90;;;;;;5045193;28;20040;-79
2023/10/16 02:45:26;;;;;;;3.55;0.85;;;7.60;99.90;;;;;;5028388;28;20481;-80
2023/10/16 02:47:53;;;;;;;6.40;0.73;;;9.60;99.90;;;;;;5060795;28;20400;-80
2023/10/16 02:50:19;;;;;;;3.33;0.88;;;9.50;99.90;;;;;;5046515;28;20040;-80
2023/10/16 02:52:47;;;;;;;6.03;0.90;;;7.50;99.90;;;;;;5063013;28;20483;-80
2023/10/16 02:55:16;;;;;;;4.85;0.65;;;9.40;99.90;;;;;;5043506;28;20143;-80
2023/10/16 02:57:42;;;;;;;2.70;0.50;;;7.50;99.90;;;;;;5042795;28;20395;-80
2023/10/16 03:00:17;;;;;;;6.25;1.50;;;9.50;99.90;;;;;;5042305;28;20036;-80
2023/10/16 03:02:46;;;;;;;2.20;0.85;;;7.50;99.90;;;;;;5043087;28;20509;-80
2023/10/16 03:05:21;;;;;;;2.55;0.50;;;9.70;99.90;;;;;;5046290;28;20032;-80
2023/10/16 03:07:51;;;;;;;4.93;0.68;;;9.60;99.90;;;;;;5045694;28;20395;-80
2023/10/16 03:10:20;;;;;;;3.15;0.60;;;7.40;99.90;;;;;;5043141;28;20040;-81
2023/10/16 03:12:49;;;;;;;4.75;0.80;;;9.50;99.90;;;;;;5042594;28;20048;-79
2023/10/16 03:15:28;;;;;;;5.80;0.63;;;9.50;99.90;;;;;;5046599;28;20110;-81
2023/10/16 03:17:54;;;;;;;3.70;0.90;;;7.30;99.90;;;;;;5043692;28;20062;-81
2023/10/16 03:20:22;;;;;;;6.50;0.65;;;9.90;99.90;;;;;;5042600;28;20476;-81
2023/10/16 03:22:51;;;;;;;3.72;1.05;;;7.40;99.90;;;;;;5043294;28;20475;-81
2023/10/16 03:28:05;;;;;;;2.10;0.52;;;9.70;99.90;;;;;;5059958;28;20311;-81
2023/10/16 03:30:31;;;;;;;7.88;1.00;;;7.50;99.90;;;;;;5042569;28;20052;-80
2023/10/16 03:32:58;;;;;;;7.05;0.70;;;7.40;99.90;;;;;;5060288;28;20123;-82
2023/10/16 03:35:26;;;;;;;3.55;0.75;;;7.00;99.90;;;;;;5062754;28;20036;-81
2023/10/16 03:37:56;;;;;;;1.25;0.43;;;9.20;99.90;;;;;;5060430;28;20143;-80
2023/10/16 03:40:24;;;;;;;2.25;0.70;;;7.50;99.90;;;;;;5041820;28;20083;-81
2023/10/16 03:42:51;;;;;;;4.60;0.63;;;7.50;99.90;;;;;;5042875;28;20266;-81
2023/10/16 03:45:20;;;;;;;1.95;0.63;;;8.50;99.90;;;;;;5046513;28;20044;-81
2023/10/16 03:47:53;;;;;;;2.08;0.40;;;7.60;99.90;;;;;;5044198;28;20051;-80
2023/10/16 03:50:24;;;;;;;5.32;0.98;;;7.60;99.90;;;;;;5042554;28;20036;-81
2023/10/16 03:52:54;;;;;;;6.57;0.90;;;7.60;99.90;;;;;;5041874;28;20044;-80
2023/10/16 03:55:27;;;;;;;3.88;0.90;;;7.40;99.90;;;;;;5045785;28;20040;-81
2023/10/16 03:57:55;;;;;;;4.40;0.73;;;9.20;99.90;;;;;;5043741;28;20101;-82
2023/10/16 04:00:33;;;;;;;5.82;0.60;;;9.80;99.90;;;;;;5041628;28;20043;-81
2023/10/16 04:02:59;;;;;;;6.78;1.00;;;7.70;99.90;;;;;;5060556;28;20052;-80
2023/10/16 04:05:45;;;;;;;8.23;1.58;;;8.90;99.90;;;;;;5062029;28;20502;-80
2023/10/16 04:08:15;;;;;;;5.85;1.00;;;8.40;99.90;;;;;;5041450;28;20071;-81
2023/10/16 04:10:47;;;;;;;3.22;0.82;;;7.70;99.90;;;;;;5040458;28;20044;-80
2023/10/16 04:13:25;;;;;;;3.90;0.60;;;8.70;99.90;;;;;;5047691;28;20080;-81
2023/10/16 04:20:56;;;;;;;2.92;0.70;;;7.80;99.90;;;;;;5059712;28;20044;-81
2023/10/16 04:23:52;;;;;;;6.05;0.98;;;9.10;99.90;;;;;;5042125;28;20039;-81
2023/10/16 04:31:44;;;;;;;3.75;0.47;;;7.70;99.90;;;;;;5061714;28;20059;-80
2023/10/16 04:37:24;;;;;;;3.33;0.60;;;7.70;99.90;;;;;;5057737;28;20439;-81
2023/10/16 04:48:06;;;;;;;3.88;1.15;;;7.60;99.90;;;;;;5061538;28;20147;-80
2023/10/16 05:03:35;;;;;;;4.53;0.57;;;7.60;99.90;;;;;;5051501;28;20882;-80
2023/10/16 05:16:48;;;;;;;4.85;0.90;;;7.40;99.90;;;;;;5057725;28;20052;-81
2023/10/16 05:19:44;;;;;;;3.50;1.50;;;7.40;99.90;;;;;;5032778;28;20040;-80
2023/10/16 06:14:09;;;;;;;;;;;8.50;99.90;;;;;;5046378;28;20032;-80
2023/10/16 06:14:13;;;;;;;2.60;0.70;;;7.30;99.90;;;;;;5080657;28;20534;-81
2023/10/16 06:16:41;;;;;;;2.78;0.50;;;7.30;99.90;;;;;;5063807;28;20148;-81
2023/10/16 06:19:14;;;;;;;4.57;0.98;;;7.30;99.90;;;;;;5044139;28;20086;-81
2023/10/16 06:21:51;;;;;;;7.57;1.20;;;9.10;99.90;;;;;;5059366;28;20559;-81
2023/10/16 06:24:33;;;;;;;3.83;0.63;;;7.60;99.90;;;;;;5036297;28;20032;-81
2023/10/16 06:27:01;;;;;;;2.58;0.63;;;7.40;99.90;;;;;;5045202;28;20041;-81
2023/10/16 06:29:40;;;;;;;1.25;0.82;;;7.40;99.90;;;;;;5046675;28;20115;-80
2023/10/16 06:32:07;;;;;;;4.32;0.85;;;7.40;99.90;;;;;;5044492;28;20136;-81
2023/10/16 06:34:36;;;;;;;2.85;0.85;;;7.40;99.90;;;;;;5041710;28;20044;-80
2023/10/16 06:37:16;;;;;;;3.65;0.93;;;7.50;99.90;;;;;;5061608;28;20044;-81
2023/10/16 06:39:49;;;;;;;2.35;0.75;;;7.50;99.90;;;;;;5081130;28;20178;-81
2023/10/16 06:42:18;;;;;;;3.75;0.88;;;7.50;99.90;;;;;;5034799;28;20045;-81
2023/10/16 06:44:50;;;;;;;3.92;0.90;;;7.50;99.90;;;;;;5043113;28;20036;-80
2023/10/16 06:47:17;;;;;;;2.67;0.80;;;7.70;99.90;;;;;;5052060;28;20419;-81
2023/10/16 06:49:43;;;;;;;5.30;1.10;;;7.60;99.90;;;;;;5058467;28;20341;-80
2023/10/16 06:52:17;;;;;;;4.80;0.90;;;8.80;99.90;;;;;;5045866;28;20041;-81
2023/10/16 06:54:44;;;;;;;;;;;9.20;99.90;;;;;;5046821;28;20083;-80
2023/10/16 06:57:13;;;;;;;4.18;1.25;;;7.60;99.90;;;;;;5043034;28;19924;-80
2023/10/16 06:59:50;;;;;;;3.40;1.15;;;8.40;99.90;;;;;;5042931;28;20047;-81
2023/10/16 07:02:19;;;;;;;5.47;1.17;;;8.80;99.90;;;;;;5042787;28;20048;-82
2023/10/16 07:04:47;;;;;;;3.03;1.38;;;9.40;99.90;;;;;;5058819;28;20041;-81
2023/10/16 07:07:16;;;;;;;3.35;1.02;;;7.60;99.90;;;;;;5045762;28;20032;-81
2023/10/16 07:09:48;;;;;;;4.00;1.00;;;7.80;99.90;;;;;;5045343;28;20036;-81
2023/10/16 07:12:18;;;;;;;2.05;1.15;;;7.70;99.90;;;;;;5059691;28;20044;-80
2023/10/16 07:15:01;;;;;;;3.90;1.13;;;7.70;99.90;;;;;;5042986;28;20442;-81
2023/10/16 07:17:28;;;;;;;2.70;0.75;;;7.80;99.90;;;;;;5035582;28;20040;-81
2023/10/16 07:20:00;;;;;;;6.75;1.08;;;7.80;99.90;;;;;;5059003;28;20044;-81
2023/10/16 07:22:32;;;;;;;2.28;1.00;;;7.80;99.90;;;;;;5062566;28;20512;-81
2023/10/16 07:25:09;;;;;;;5.78;0.85;;;7.80;99.90;;;;;;5044109;28;20039;-81
2023/10/16 07:27:35;;;;;;;3.40;0.80;;;7.80;99.90;;;;;;5042573;28;20590;-81
2023/10/16 07:30:01;;;;;;;6.07;1.05;;;7.90;99.90;;;;;;5044000;28;20048;-81
2023/10/16 07:32:27;;;;;;;4.32;1.10;;;9.40;99.90;;;;;;5062029;28;20039;-81
2023/10/16 07:34:52;;;;;;;2.35;1.13;;;8.00;99.90;;;;;;5061737;28;20482;-82
2023/10/16 07:37:18;;;;;;;5.10;0.98;;;8.80;99.90;;;;;;5041954;28;20028;-81
2023/10/16 07:39:43;;;;;;;5.30;0.85;;;8.00;99.90;;;;;;5041572;28;20048;-81
2023/10/16 07:42:10;;;;;;;7.53;1.10;;;8.40;99.90;;;;;;5061148;28;20068;-80
2023/10/16 07:44:36;;;;;;;5.00;0.73;;;8.00;99.90;;;;;;5062278;28;20052;-82
2023/10/16 07:47:01;;;;;;;6.25;1.05;;;9.50;99.90;;;;;;5059718;28;20447;-80
2023/10/16 07:49:27;;;;;;;5.25;1.38;;;8.10;99.90;;;;;;5042285;28;20392;-80
2023/10/16 07:51:54;;;;;;;2.95;0.77;;;8.20;99.90;;;;;;5057937;28;20102;-81
2023/10/16 07:54:21;;;;;;;3.17;1.00;;;8.20;99.90;;;;;;5045768;28;20395;-80
2023/10/16 07:56:50;;;;;;;7.60;1.42;;;8.20;99.90;;;;;;5045116;28;20046;-80
2023/10/16 07:59:19;;;;;;;7.45;1.15;;;10.20;99.90;;;;;;5041237;28;20435;-82
2023/10/16 08:01:48;;;;;;;9.75;1.20;;;8.10;99.90;;;;;;5076441;28;20055;-81
2023/10/16 08:07:04;;;;;;;4.35;1.08;;;8.50;99.90;;;;;;5061094;28;20095;-81
2023/10/16 08:12:18;;;;;;;6.80;1.40;;;8.60;99.90;;;;;;5059943;28;20132;-81
2023/10/16 08:14:45;;;;;;;4.82;1.15;;;8.60;99.90;;;;;;5044451;28;20344;-81
2023/10/16 08:17:17;;;;;;;6.68;1.33;;;8.70;99.90;;;;;;5059175;28;20351;-81
2023/10/16 08:19:47;;;;;;;8.35;1.33;;;8.70;99.90;;;;;;5041580;28;20078;-80
2023/10/16 08:22:15;;;;;;;3.40;0.95;;;8.80;99.90;;;;;;5044211;28;20031;-81
2023/10/16 08:24:57;;;;;;;5.80;1.20;;;8.80;99.90;;;;;;5044929;28;20377;-81
2023/10/16 08:30:17;;;;;;;6.38;1.02;;;8.90;99.90;;;;;;5058610;28;20045;-82
2023/10/16 08:35:22;;;;;;;9.02;1.00;;;8.90;99.90;;;;;;5058299;28;20048;-81
2023/10/16 08:37:58;;;;;;;6.82;0.93;;;9.60;99.90;;;;;;5057471;28;20045;-81
2023/10/16 08:40:34;;;;;;;6.47;1.73;;;9.00;99.90;;;;;;5050503;28;20052;-81
2023/10/16 08:43:03;;;;;;;4.43;0.82;;;9.00;99.90;;;;;;5041938;28;20437;-81
2023/10/16 08:45:32;;;;;;;4.50;1.42;;;9.00;99.90;;;;;;5045070;28;20479;-81
2023/10/16 08:47:58;;;;;;;8.07;1.48;;;9.00;99.90;;;;;;5078712;28;20047;-82
2023/10/16 08:50:40;;;;;;;6.93;1.38;;;9.10;99.90;;;;;;5057751;28;20044;-80
2023/10/16 08:53:09;;;;;;;10.77;1.35;;;8.90;99.90;;;;;;5042924;28;20048;-81
2023/10/16 08:55:35;;;;;;;8.88;1.38;;;9.10;99.90;;;;;;5061175;28;20040;-81
2023/10/16 08:58:04;;;;;;;11.13;1.42;;;9.20;99.90;;;;;;5046335;28;20055;-82
2023/10/16 09:00:31;;;;;;;4.60;0.93;;;9.20;99.90;;;;;;5045119;28;20045;-82
2023/10/16 09:03:00;;;;;;;7.03;1.70;;;9.20;99.90;;;;;;5044869;28;20433;-81
2023/10/16 09:05:26;;;;;;;6.68;1.20;;;9.30;99.90;;;;;;5048477;28;20044;-81
2023/10/16 09:07:52;;;;;;;11.13;1.33;;;9.30;99.90;;;;;;5048112;28;20036;-82
2023/10/16 09:10:21;;;;;;;7.72;1.33;;;10.20;99.90;;;;;;5045074;28;20113;-81
2023/10/16 09:12:54;;;;;;;3.97;0.90;;;9.40;99.90;;;;;;5045272;28;20052;-81
2023/10/16 09:15:24;;;;;;;9.38;1.48;;;9.40;99.90;;;;;;5044919;28;20032;-80
2023/10/16 09:17:51;;;;;;;8.98;1.23;;;9.50;99.90;;;;;;5044125;28;20127;-82
2023/10/16 09:20:18;;;;;;;7.82;1.10;;;11.10;99.90;;;;;;5048162;28;20036;-81
2023/10/16 09:22:47;;;;;;;8.55;1.02;;;9.70;99.90;;;;;;5065098;28;20097;-81
2023/10/16 09:25:15;;;;;;;3.67;0.65;;;9.70;99.90;;;;;;5045104;28;20391;-81
2023/10/16 09:27:49;;;;;;;9.50;1.45;;;9.70;99.90;;;;;;5044651;28;20052;-81
2023/10/16 09:30:15;;;;;;;6.72;1.15;;;9.80;99.90;;;;;;5047175;28;20049;-81
2023/10/16 09:32:41;;;;;;;5.82;1.23;;;10.00;99.90;;;;;;5047413;28;20483;-80
2023/10/16 09:35:13;;;;;;;15.75;9.85;;;9.80;99.90;;;;;;5062723;28;20044;-80
2023/10/16 09:37:47;;;;;;;19.55;10.88;;;9.80;99.90;;;;;;5043173;28;20562;-80
2023/10/16 09:40:19;;;;;;;9.35;6.03;;;9.80;99.90;;;;;;5046992;28;20047;-78
2023/10/16 09:43:05;;;;;;;8.05;3.63;;;9.80;99.90;;;;;;5064665;28;20479;-81
2023/10/16 09:45:36;;;;;;;7.95;2.08;;;9.80;99.90;;;;;;5053870;28;20056;-81
2023/10/16 09:48:09;;;;;;;11.32;2.15;;;9.80;99.90;;;;;;5044503;28;20162;-81
2023/10/16 09:50:37;;;;;;;4.80;0.90;;;10.50;99.90;;;;;;5064517;28;20048;-80
2023/10/16 09:53:05;;;;;;;4.75;0.73;;;9.90;99.90;;;;;;5045830;28;20048;-80
2023/10/16 09:55:38;;;;;;;2.85;0.95;;;10.10;99.90;;;;;;5061203;28;20048;-79
2023/10/16 09:58:06;;;;;;;4.90;0.70;;;9.80;99.90;;;;;;5061605;28;20127;-81
2023/10/16 10:00:32;;;;;;;4.78;0.77;;;9.80;99.90;;;;;;5046893;28;20113;-81
2023/10/16 10:03:12;;;;;;;8.70;1.20;;;9.90;99.90;;;;;;5063556;28;20496;-81
2023/10/16 10:06:34;;;;;;;5.97;0.60;;;9.90;99.90;;;;;;5040655;28;20040;-79
2023/10/16 10:11:57;;;;;;;5.93;0.90;;;10.00;99.90;;;;;;5066629;28;20059;-83
2023/10/16 10:14:32;;;;;;;9.00;0.80;;;10.50;99.90;;;;;;5019616;28;20077;-81
2023/10/16 10:17:04;;;;;;;4.88;0.98;;;11.50;99.90;;;;;;5043723;28;20048;-79
2023/10/16 10:19:31;;;;;;;11.60;1.60;;;11.40;99.90;;;;;;5058210;28;20094;-81
2023/10/16 10:22:26;;;;;;;5.53;0.70;;;10.20;99.90;;;;;;5043995;28;20055;-81
2023/10/16 10:25:17;;;;;;;9.20;0.80;;;10.20;99.90;;;;;;5055324;28;20404;-86
2023/10/16 10:27:44;;;;;;;5.97;0.70;;;10.20;99.90;;;;;;5054208;28;20040;-83
2023/10/16 10:30:28;;;;;;;3.67;0.60;;;11.80;99.90;;;;;;5044431;28;20036;-85
2023/10/16 10:32:58;;;;;;;3.20;0.63;;;10.60;99.90;;;;;;5055002;28;20056;-85
2023/10/16 10:35:28;;;;;;;5.28;0.40;;;10.30;99.90;;;;;;5033709;28;20132;-81
2023/10/16 10:38:20;;;;;;;4.00;0.57;;;11.20;99.90;;;;;;5041364;28;20428;-84
2023/10/16 10:41:04;;;;;;;7.90;1.30;;;10.40;99.90;;;;;;5036925;28;20435;-79
2023/10/16 10:43:48;;;;;;;4.72;1.00;;;10.40;99.90;;;;;;5040730;28;20040;-84
2023/10/16 10:46:22;;;;;;;5.07;0.32;;;10.80;99.90;;;;;;5036778;28;20090;-84
2023/10/16 10:48:48;;;;;;;;;;;12.20;99.90;;;;;;4338980;28;10000626;-84
2023/10/16 10:51:16;;;;;;;1.98;0.50;;;10.50;99.90;;;;;;5034871;28;19974;-84
2023/10/16 10:53:54;;;;;;;6.82;0.70;;;10.50;99.90;;;;;;5048767;28;20040;-83
2023/10/16 10:56:22;;;;;;;3.33;0.73;;;12.00;99.90;;;;;;5031849;28;20135;-86
2023/10/16 10:58:49;;;;;;;4.45;0.77;;;11.60;99.90;;;;;;5031765;28;20123;-83
2023/10/16 11:01:28;;;;;;;3.63;0.80;;;12.10;99.90;;;;;;5049006;28;20116;-83
2023/10/16 11:03:55;;;;;;;3.05;0.93;;;10.50;99.90;;;;;;5032280;28;20036;-85
2023/10/16 11:06:31;;;;;;;3.83;0.70;;;12.20;99.90;;;;;;5033418;28;20415;-83
2023/10/16 11:09:11;;;;;;;4.57;0.70;;;10.20;99.90;;;;;;5048984;28;20040;-85
2023/10/16 11:11:44;;;;;;;3.70;0.50;;;10.70;99.90;;;;;;5032977;28;20148;-82
2023/10/16 11:14:12;;;;;;;2.70;0.43;;;10.70;99.90;;;;;;5035768;28;20055;-80
2023/10/16 11:16:45;;;;;;;2.05;0.55;;;11.00;99.90;;;;;;5051709;28;20106;-83
2023/10/16 11:19:11;;;;;;;5.07;1.13;;;10.80;99.90;;;;;;5053150;28;20463;-82
2023/10/16 11:21:44;;;;;;;3.13;0.65;;;10.90;99.90;;;;;;5050089;28;20134;-81
2023/10/16 11:24:16;;;;;;;1.55;0.65;;;12.40;99.90;;;;;;5036330;28;20120;-83
2023/10/16 11:26:45;;;;;;;2.60;0.50;;;11.10;99.90;;;;;;5036556;28;20036;-84
2023/10/16 11:29:12;;;;;;;5.88;0.80;;;12.60;99.90;;;;;;5055176;28;20047;-86
2023/10/16 11:31:44;;;;;;;7.35;1.30;;;12.40;99.90;;;;;;5036299;28;20409;-86
2023/10/16 11:34:12;;;;;;;5.25;1.00;;;11.50;99.90;;;;;;5037022;28;20136;-82
2023/10/16 11:36:39;;;;;;;5.22;1.00;;;11.20;99.90;;;;;;5037831;28;20098;-82
2023/10/16 11:39:10;;;;;;;6.32;0.90;;;12.20;99.90;;;;;;5035400;28;20564;-84
2023/10/16 11:41:36;;;;;;;7.60;1.00;;;11.20;99.90;;;;;;5050256;28;20048;-82
2023/10/16 11:44:13;;;;;;;9.55;1.10;;;11.20;99.90;;;;;;5032598;28;20055;-81
2023/10/16 11:46:47;;;;;;;5.80;1.10;;;11.20;99.90;;;;;;5032233;28;20051;-85
2023/10/16 11:51:55;;;;;;;6.88;0.60;;;12.30;99.90;;;;;;5052344;28;19921;-82
2023/10/16 11:54:23;;;;;;;6.13;0.80;;;12.30;99.90;;;;;;5029310;28;20048;-81
2023/10/16 11:56:54;;;;;;;3.08;0.75;;;11.70;99.90;;;;;;5035867;28;20037;-82
2023/10/16 11:59:25;;;;;;;3.88;0.50;;;11.20;99.90;;;;;;5050880;28;20098;-82
2023/10/16 12:01:51;;;;;;;6.03;0.60;;;12.30;99.90;;;;;;5033919;28;20371;-84
2023/10/16 12:04:22;;;;;;;4.22;0.80;;;12.50;99.90;;;;;;5036065;28;20149;-83
2023/10/16 12:06:48;;;;;;;5.88;0.70;;;11.10;99.90;;;;;;5033453;28;20036;-84
2023/10/16 12:09:19;;;;;;;4.40;0.57;;;11.10;99.90;;;;;;5035181;28;20056;-82
2023/10/16 12:11:54;;;;;;;2.10;0.50;;;11.10;99.90;;;;;;5051935;28;20711;-84
2023/10/16 12:14:22;;;;;;;6.13;0.68;;;11.90;99.90;;;;;;5035967;28;20098;-84
2023/10/16 12:16:48;;;;;;;4.28;0.73;;;11.70;99.90;;;;;;5034820;28;20039;-83
2023/10/16 12:19:15;;;;;;;6.70;0.63;;;11.10;99.90;;;;;;5035940;28;20318;-80
2023/10/16 12:21:44;;;;;;;4.55;0.70;;;11.90;99.90;;;;;;5052465;28;20602;-83
2023/10/16 12:24:11;;;;;;;6.43;1.15;;;11.20;99.90;;;;;;5036244;28;20430;-84
2023/10/16 12:26:40;;;;;;;5.88;0.55;;;12.50;99.90;;;;;;5053480;28;20047;-84
2023/10/16 12:29:08;;;;;;;7.28;0.93;;;10.40;99.90;;;;;;5053695;28;20052;-84
2023/10/16 12:31:37;;;;;;;4.45;1.08;;;12.70;99.90;;;;;;5036109;28;20080;-81
2023/10/16 12:34:03;;;;;;;3.08;0.50;;;11.20;99.90;;;;;;5035068;28;20049;-81
2023/10/16 12:36:31;;;;;;;4.57;0.80;;;11.20;99.90;;;;;;5047922;28;20040;-81
2023/10/16 12:38:56;;;;;;;9.38;1.63;;;11.20;99.90;;;;;;5054528;28;20045;-82
2023/10/16 12:41:23;;;;;;;6.07;0.85;;;11.20;99.90;;;;;;5036326;28;20121;-80
2023/10/16 12:43:49;;;;;;;5.35;0.85;;;12.40;99.90;;;;;;5036582;28;20044;-84
2023/10/16 12:46:15;;;;;;;4.50;1.15;;;10.00;99.90;;;;;;5038167;28;20577;-81
2023/10/16 12:48:40;;;;;;;9.18;1.17;;;11.20;99.90;;;;;;5045412;28;20052;-83
2023/10/16 12:51:10;;;;;;;4.30;0.80;;;11.10;99.90;;;;;;5045424;28;20083;-83
2023/10/16 12:53:37;;;;;;;4.10;1.10;;;11.10;99.90;;;;;;5061153;28;20044;-81
2023/10/16 12:56:05;;;;;;;1.80;0.57;;;12.10;99.90;;;;;;5057381;28;20039;-80
2023/10/16 12:58:33;;;;;;;7.30;1.35;;;11.10;99.90;;;;;;5044854;28;20135;-83
2023/10/16 13:00:59;;;;;;;6.32;1.02;;;11.10;99.90;;;;;;5064788;28;20052;-83
2023/10/16 13:03:25;;;;;;;5.75;0.85;;;11.30;99.90;;;;;;5042244;28;20093;-80
2023/10/16 13:05:52;;;;;;;7.28;0.80;;;12.00;99.90;;;;;;5059307;28;20433;-80
2023/10/16 13:08:21;;;;;;;6.05;1.20;;;11.20;99.90;;;;;;5051248;28;20043;-76
2023/10/16 13:10:51;;;;;;;3.92;1.05;;;11.30;99.90;;;;;;5060807;28;20048;-76
2023/10/16 13:13:20;;;;;;;5.65;1.13;;;12.70;99.90;;;;;;5050536;28;20032;-76
2023/10/16 13:15:51;;;;;;;3.83;0.70;;;11.40;99.90;;;;;;5043535;28;20044;-78
2023/10/16 13:18:27;;;;;;;5.30;0.68;;;11.40;99.90;;;;;;5046599;28;20037;-81
2023/10/16 13:20:58;;;;;;;5.47;0.65;;;11.40;99.90;;;;;;5046088;28;20044;-77
2023/10/16 13:23:26;;;;;;;6.38;0.80;;;11.40;99.90;;;;;;5061643;28;20040;-84
2023/10/16 13:25:56;;;;;;;3.45;0.63;;;11.50;99.90;;;;;;5033655;28;20040;-82
2023/10/16 13:28:23;;;;;;;4.90;0.85;;;11.50;99.90;;;;;;5057116;28;20048;-86
2023/10/16 13:30:51;;;;;;;5.47;0.93;;;11.50;99.90;;;;;;5051108;28;20052;-77
2023/10/16 13:33:17;;;;;;;5.18;0.65;;;11.60;99.90;;;;;;5039270;28;20130;-83
2023/10/16 13:35:44;;;;;;;8.57;1.20;;;12.70;99.90;;;;;;5035842;28;20260;-81
2023/10/16 13:38:09;;;;;;;7.75;1.00;;;11.60;99.90;;;;;;5048549;28;20056;-78
2023/10/16 13:40:35;;;;;;;7.82;1.55;;;12.70;99.90;;;;;;5052840;28;20416;-81
2023/10/16 13:43:10;;;;;;;4.22;0.80;;;11.70;99.90;;;;;;5034000;28;20040;-82
2023/10/16 13:45:37;;;;;;;8.60;1.17;;;11.60;99.90;;;;;;5033593;28;20047;-78
2023/10/16 13:48:09;;;;;;;6.93;1.08;;;12.90;99.90;;;;;;5034197;28;20063;-79
2023/10/16 13:50:34;;;;;;;3.88;0.57;;;11.60;99.90;;;;;;5040063;28;20707;-81
2023/10/16 13:53:04;;;;;;;6.03;1.08;;;12.50;99.90;;;;;;5063871;28;20051;-83
2023/10/16 13:55:30;;;;;;;5.85;0.65;;;10.30;99.90;;;;;;5052448;28;20778;-80
2023/10/16 13:57:56;;;;;;;5.20;0.93;;;11.60;99.90;;;;;;5043707;28;20045;-80
2023/10/16 14:00:28;;;;;;;12.48;1.35;;;11.60;99.90;;;;;;5045730;28;20095;-81
2023/10/16 14:03:26;;;;;;;5.03;0.70;;;12.30;99.90;;;;;;5046833;28;20599;-80
2023/10/16 14:05:51;;;;;;;4.80;0.50;;;11.50;99.90;;;;;;5053558;28;20048;-82
2023/10/16 14:08:25;;;;;;;5.80;1.25;;;12.90;99.90;;;;;;5044939;28;20041;-79
2023/10/16 14:10:55;;;;;;;5.00;0.90;;;12.10;99.90;;;;;;5043526;28;20051;-80
2023/10/16 14:13:26;;;;;;;4.95;1.10;;;11.60;99.90;;;;;;5046595;28;20048;-80
2023/10/16 14:16:17;;;;;;;4.15;0.98;;;12.70;99.90;;;;;;5046872;28;20483;-81
2023/10/16 14:18:44;;;;;;;5.20;0.82;;;12.20;99.90;;;;;;5035923;28;20663;-83
2023/10/16 14:21:11;;;;;;;3.72;1.13;;;12.50;99.90;;;;;;5043945;28;20415;-80
2023/10/16 14:23:40;;;;;;;7.72;0.88;;;12.00;99.90;;;;;;5047017;28;20039;-82
2023/10/16 14:26:28;;;;;;;6.13;1.35;;;12.80;99.90;;;;;;5041654;28;20485;-81
2023/10/16 14:28:59;;;;;;;4.05;1.05;;;11.40;99.90;;;;;;5052681;28;20165;-84
2023/10/16 14:31:25;;;;;;;12.52;4.97;;;12.90;99.90;;;;;;5031524;28;20076;-81
2023/10/16 14:33:53;;;;;;;7.80;2.33;;;13.00;99.90;;;;;;5039135;28;20048;-79
2023/10/16 14:36:19;;;;;;;2.33;1.25;;;11.40;99.90;;;;;;5038858;28;20040;-82
2023/10/16 14:38:45;;;;;;;9.02;1.17;;;11.40;99.90;;;;;;5038479;28;20545;-81
2023/10/16 14:41:17;;;;;;;10.38;1.33;;;11.40;99.90;;;;;;5066370;28;20052;-80
2023/10/16 14:43:46;;;;;;;6.95;0.90;;;11.30;99.90;;;;;;5039391;28;20045;-82
2023/10/16 14:46:12;;;;;;;4.63;1.33;;;12.10;99.90;;;;;;5028392;28;20047;-82
2023/10/16 14:48:42;;;;;;;3.92;0.75;;;11.30;99.90;;;;;;5046397;28;20052;-80
2023/10/16 14:51:15;;;;;;;4.72;0.70;;;11.30;99.90;;;;;;5045317;28;20050;-84
2023/10/16 14:53:43;;;;;;;5.47;1.10;;;11.30;99.90;;;;;;5059283;28;20044;-85
2023/10/16 14:56:11;;;;;;;6.43;0.60;;;12.50;99.90;;;;;;5057709;28;20465;-81
2023/10/16 14:58:38;;;;;;;5.93;0.95;;;11.20;99.90;;;;;;5028339;28;20663;-80
2023/10/16 15:01:16;;;;;;;4.25;0.60;;;12.40;99.90;;;;;;5045220;28;20113;-81
2023/10/16 15:03:47;;;;;;;6.43;0.90;;;12.00;99.90;;;;;;5041912;28;20045;-81
2023/10/16 15:06:15;;;;;;;6.95;0.82;;;12.50;99.90;;;;;;5037935;28;20047;-80
2023/10/16 15:08:45;;;;;;;6.95;0.93;;;11.30;99.90;;;;;;5056793;28;20044;-81